createdAt,value
2023-03-19T00:01:11.709Z,0.99
2023-03-19T00:03:51.797Z,1.01
2023-03-19T00:06:45.707Z,0.99
2023-03-19T00:09:40.038Z,0.97
2023-03-19T00:12:27.720Z,0.96
2023-03-19T00:15:01.278Z,0.97
2023-03-19T00:17:50.719Z,0.97
2023-03-19T00:20:23.810Z,0.93
2023-03-19T00:23:10.721Z,0.91
2023-03-19T00:25:50.708Z,0.92
2023-03-19T00:28:44.689Z,0.96
2023-03-19T00:31:32.696Z,1.01
2023-03-19T00:34:06.799Z,1.04
2023-03-19T00:36:53.711Z,1.04
2023-03-19T00:39:33.690Z,1.04
2023-03-19T00:42:27.737Z,1.09
2023-03-19T00:45:15.720Z,1.11
2023-03-19T00:47:55.699Z,1.10
2023-03-19T00:50:42.712Z,1.11
2023-03-19T00:53:15.833Z,1.13
2023-03-19T00:56:02.725Z,1.13
2023-03-19T00:58:36.022Z,1.10
2023-03-19T01:01:24.741Z,1.10
2023-03-19T01:03:57.878Z,1.10
2023-03-19T01:06:51.724Z,1.09
2023-03-19T01:09:39.714Z,1.06
2023-03-19T01:12:13.842Z,1.06
2023-03-19T01:15:00.724Z,1.07
2023-03-19T01:17:33.874Z,1.09
2023-03-19T01:20:21.911Z,1.07
2023-03-19T01:22:54.814Z,1.02
2023-03-19T01:25:42.710Z,1.03
2023-03-19T01:28:15.922Z,1.02
2023-03-19T01:31:11.779Z,0.99
2023-03-19T01:33:44.809Z,0.97
2023-03-19T01:36:31.717Z,0.95
2023-03-19T01:39:05.003Z,0.92
2023-03-19T01:41:51.718Z,0.88
2023-03-19T01:44:42.146Z,0.85
2023-03-19T01:47:49.720Z,0.82
2023-03-19T01:50:41.179Z,0.78
2023-03-19T01:53:32.719Z,0.74
2023-03-19T01:56:25.743Z,0.72
2023-03-19T01:59:24.803Z,0.65
2023-03-19T02:02:24.739Z,0.61
2023-03-19T02:05:22.702Z,0.54
2023-03-19T02:08:20.737Z,0.50
2023-03-19T02:11:14.731Z,0.49
2023-03-19T02:14:08.729Z,0.47
2023-03-19T02:16:48.730Z,0.44
2023-03-19T02:19:49.732Z,0.41
2023-03-19T02:22:34.721Z,0.38
2023-03-19T02:25:31.718Z,0.37
2023-03-19T02:28:12.795Z,0.35
2023-03-19T02:31:06.776Z,0.34
2023-03-19T02:34:11.740Z,0.30
2023-03-19T02:37:00.748Z,0.28
2023-03-19T02:39:55.751Z,0.26
2023-03-19T02:42:40.738Z,0.23
2023-03-19T02:45:27.815Z,0.17
2023-03-19T02:48:01.174Z,0.14
2023-03-19T02:50:47.730Z,0.15
2023-03-19T02:53:20.923Z,0.14
2023-03-19T02:56:07.746Z,0.12
2023-03-19T02:58:40.881Z,0.11
2023-03-19T03:01:27.841Z,0.07
2023-03-19T03:04:07.730Z,0.04
2023-03-19T03:07:01.762Z,0.01
2023-03-19T03:09:55.733Z,0.01
2023-03-19T03:12:49.743Z,-0.02
2023-03-19T03:15:36.765Z,-0.02
2023-03-19T03:18:09.825Z,-0.05
2023-03-19T03:20:56.761Z,-0.08
2023-03-19T03:23:29.853Z,-0.10
2023-03-19T03:26:16.772Z,-0.12
2023-03-19T03:28:49.848Z,-0.13
2023-03-19T03:31:36.811Z,-0.17
2023-03-19T03:34:09.894Z,-0.23
2023-03-19T03:36:56.767Z,-0.26
2023-03-19T03:39:29.859Z,-0.27
2023-03-19T03:42:16.764Z,-0.31
2023-03-19T03:44:56.796Z,-0.32
2023-03-19T03:47:43.775Z,-0.33
2023-03-19T03:50:17.067Z,-0.33
2023-03-19T03:53:03.783Z,-0.34
2023-03-19T03:55:37.853Z,-0.36
2023-03-19T03:58:24.790Z,-0.37
2023-03-19T04:00:57.868Z,-0.39
2023-03-19T04:03:44.773Z,-0.43
2023-03-19T04:06:24.277Z,-0.45
2023-03-19T04:09:17.765Z,-0.44
2023-03-19T04:12:11.769Z,-0.48
2023-03-19T04:15:05.803Z,-0.51
2023-03-19T04:17:59.832Z,-0.53
2023-03-19T04:20:53.765Z,-0.58
2023-03-19T04:23:40.792Z,-0.60
2023-03-19T04:26:21.781Z,-0.64
2023-03-19T04:29:15.754Z,-0.65
2023-03-19T04:32:02.767Z,-0.69
2023-03-19T04:34:42.770Z,-0.72
2023-03-19T04:37:36.796Z,-0.75
2023-03-19T04:40:24.792Z,-0.80
2023-03-19T04:43:04.793Z,-0.80
2023-03-19T04:45:58.835Z,-0.79
2023-03-19T04:48:46.770Z,-0.81
2023-03-19T04:51:21.539Z,-0.81
2023-03-19T04:54:07.788Z,-0.83
2023-03-19T04:56:41.104Z,-0.84
2023-03-19T04:59:28.792Z,-0.86
2023-03-19T05:02:01.881Z,-0.83
2023-03-19T05:04:48.799Z,-0.82
2023-03-19T05:07:22.010Z,-0.84
2023-03-19T05:10:08.816Z,-0.85
2023-03-19T05:12:42.269Z,-0.80
2023-03-19T05:15:28.783Z,-0.80
2023-03-19T05:18:02.043Z,-0.78
2023-03-19T05:20:48.783Z,-0.76
2023-03-19T05:23:29.808Z,-0.70
2023-03-19T05:26:23.838Z,-0.69
2023-03-19T05:29:17.805Z,-0.69
2023-03-19T05:32:11.793Z,-0.67
2023-03-19T05:34:58.794Z,-0.61
2023-03-19T05:37:33.708Z,-0.59
2023-03-19T05:40:20.786Z,-0.59
2023-03-19T05:42:53.905Z,-0.56
2023-03-19T05:45:42.798Z,-0.44
2023-03-19T05:48:17.216Z,-0.27
2023-03-19T05:51:03.806Z,-0.05
2023-03-19T05:53:36.896Z,0.18
2023-03-19T05:56:23.816Z,0.46
2023-03-19T05:58:57.268Z,0.67
2023-03-19T06:01:43.859Z,0.92
2023-03-19T06:04:17.024Z,1.15
2023-03-19T06:07:03.789Z,1.38
2023-03-19T06:09:36.950Z,1.65
2023-03-19T06:12:23.804Z,1.87
2023-03-19T06:15:03.806Z,2.12
2023-03-19T06:17:57.816Z,2.40
2023-03-19T06:20:51.834Z,2.67
2023-03-19T06:23:38.806Z,2.87
2023-03-19T06:26:18.848Z,2.96
2023-03-19T06:29:05.830Z,3.13
2023-03-19T06:31:41.706Z,3.35
2023-03-19T06:34:28.847Z,3.61
2023-03-19T06:37:02.133Z,3.81
2023-03-19T06:39:48.828Z,4.04
2023-03-19T06:42:22.248Z,4.31
2023-03-19T06:45:08.817Z,4.51
2023-03-19T06:47:42.032Z,4.70
2023-03-19T06:50:28.814Z,4.95
2023-03-19T06:53:08.827Z,5.13
2023-03-19T06:56:02.828Z,5.32
2023-03-19T06:58:49.859Z,5.60
2023-03-19T07:01:23.291Z,5.85
2023-03-19T07:04:09.875Z,6.05
2023-03-19T07:06:42.942Z,6.26
2023-03-19T07:09:29.823Z,6.45
2023-03-19T07:12:03.012Z,6.65
2023-03-19T07:14:49.842Z,6.85
2023-03-19T07:17:23.014Z,7.06
2023-03-19T07:20:09.877Z,7.30
2023-03-19T07:22:42.937Z,7.58
2023-03-19T07:25:29.822Z,7.84
2023-03-19T07:28:02.954Z,8.12
2023-03-19T07:30:49.838Z,8.39
2023-03-19T07:33:29.855Z,8.59
2023-03-19T07:36:16.838Z,8.85
2023-03-19T07:38:50.032Z,9.09
2023-03-19T07:41:36.851Z,9.34
2023-03-19T07:44:16.838Z,9.56
2023-03-19T07:47:22.595Z,9.73
2023-03-19T07:50:15.835Z,9.89
2023-03-19T07:52:52.037Z,10.07
2023-03-19T07:55:38.880Z,10.43
2023-03-19T07:58:11.936Z,10.88
2023-03-19T08:00:59.884Z,11.11
2023-03-19T08:03:33.485Z,11.29
2023-03-19T08:06:19.852Z,11.43
2023-03-19T08:08:59.852Z,11.52
2023-03-19T08:11:53.886Z,11.58
2023-03-19T08:14:40.861Z,11.65
2023-03-19T08:17:13.987Z,11.73
2023-03-19T08:20:00.858Z,11.80
2023-03-19T08:22:33.950Z,11.83
2023-03-19T08:25:20.892Z,11.79
2023-03-19T08:27:54.961Z,11.87
2023-03-19T08:30:42.915Z,11.85
2023-03-19T08:33:16.080Z,11.91
2023-03-19T08:36:17.857Z,12.00
2023-03-19T08:39:00.865Z,12.12
2023-03-19T08:41:47.930Z,12.25
2023-03-19T08:44:27.896Z,12.34
2023-03-19T08:47:21.903Z,12.51
2023-03-19T08:50:08.911Z,12.53
2023-03-19T08:52:42.000Z,12.67
2023-03-19T08:55:28.885Z,12.68
2023-03-19T08:58:08.892Z,12.68
2023-03-19T09:01:02.880Z,12.75
2023-03-19T09:03:51.916Z,12.89
2023-03-19T09:06:31.894Z,13.10
2023-03-19T09:09:25.874Z,13.24
2023-03-19T09:12:13.875Z,13.31
2023-03-19T09:14:53.888Z,13.33
2023-03-19T09:17:40.906Z,13.45
2023-03-19T09:20:15.021Z,13.56
2023-03-19T09:23:01.912Z,13.68
2023-03-19T09:25:41.900Z,13.83
2023-03-19T09:28:28.896Z,13.92
2023-03-19T09:31:13.948Z,14.24
2023-03-19T09:34:00.882Z,14.08
2023-03-19T09:36:40.900Z,14.05
2023-03-19T09:39:27.900Z,14.22
2023-03-19T09:42:07.067Z,14.23
2023-03-19T09:44:53.924Z,14.30
2023-03-19T09:47:36.069Z,14.36
2023-03-19T09:50:25.911Z,14.25
2023-03-19T09:53:44.897Z,14.16
2023-03-19T09:56:38.933Z,14.06
2023-03-19T09:59:29.904Z,14.09
2023-03-19T10:02:24.019Z,14.12
2023-03-19T10:05:34.120Z,14.19
2023-03-19T10:08:23.920Z,14.23
2023-03-19T10:11:36.907Z,14.24
2023-03-19T10:14:23.908Z,14.15
2023-03-19T10:17:00.018Z,14.07
2023-03-19T10:20:12.906Z,13.95
2023-03-19T10:22:56.262Z,13.97
2023-03-19T10:25:47.024Z,13.94
2023-03-19T10:28:25.031Z,13.93
2023-03-19T10:31:27.943Z,13.98
2023-03-19T10:34:31.417Z,14.04
2023-03-19T10:37:26.962Z,14.04
2023-03-19T10:40:04.034Z,14.04
2023-03-19T10:43:19.946Z,13.94
2023-03-19T10:46:00.949Z,13.97
2023-03-19T10:48:53.946Z,14.03
2023-03-19T10:51:31.052Z,14.05
2023-03-19T10:54:46.946Z,14.05
2023-03-19T10:57:55.947Z,14.05
2023-03-19T11:00:50.015Z,14.11
2023-03-19T11:03:47.068Z,14.11
2023-03-19T11:06:46.943Z,14.12
2023-03-19T11:09:51.962Z,14.16
2023-03-19T11:12:40.937Z,14.22
2023-03-19T11:15:37.155Z,14.17
2023-03-19T11:18:38.944Z,14.19
2023-03-19T11:21:36.964Z,14.27
2023-03-19T11:24:11.036Z,14.30
2023-03-19T11:27:01.963Z,14.30
2023-03-19T11:29:36.071Z,14.34
2023-03-19T11:32:41.045Z,14.31
2023-03-19T11:35:48.166Z,14.37
2023-03-19T11:39:00.976Z,14.41
2023-03-19T11:42:01.982Z,14.40
2023-03-19T11:44:58.957Z,14.39
2023-03-19T11:48:07.976Z,14.35
2023-03-19T11:51:07.962Z,14.35
2023-03-19T11:54:05.088Z,14.40
2023-03-19T11:57:01.988Z,14.37
2023-03-19T11:59:45.330Z,14.38
2023-03-19T12:02:32.153Z,14.49
2023-03-19T12:05:51.003Z,14.63
2023-03-19T12:09:11.983Z,14.66
2023-03-19T12:12:21.015Z,14.58
2023-03-19T12:15:15.954Z,14.55
2023-03-19T12:18:31.961Z,14.55
2023-03-19T12:21:29.998Z,14.61
2023-03-19T12:24:10.102Z,14.63
2023-03-19T12:27:27.003Z,14.59
2023-03-19T12:30:16.984Z,14.49
2023-03-19T12:33:05.121Z,14.38
2023-03-19T12:35:43.317Z,14.32
2023-03-19T12:38:55.021Z,14.25
2023-03-19T12:41:38.002Z,14.17
2023-03-19T12:44:50.000Z,14.17
2023-03-19T12:47:45.009Z,14.25
2023-03-19T12:50:22.572Z,14.18
2023-03-19T12:53:14.005Z,14.13
2023-03-19T12:55:52.167Z,14.01
2023-03-19T12:59:03.014Z,13.89
2023-03-19T13:01:50.152Z,13.80
2023-03-19T13:04:48.087Z,13.74
2023-03-19T13:07:42.017Z,13.66
2023-03-19T13:10:36.270Z,13.60
2023-03-19T13:13:45.022Z,13.55
2023-03-19T13:16:53.007Z,13.49
2023-03-19T13:19:56.568Z,13.43
2023-03-19T13:22:45.012Z,13.39
2023-03-19T13:25:24.126Z,13.33
2023-03-19T13:28:17.047Z,13.34
2023-03-19T13:31:09.232Z,13.28
2023-03-19T13:34:13.028Z,13.26
2023-03-19T13:36:54.076Z,13.21
2023-03-19T13:39:49.005Z,13.15
2023-03-19T13:42:53.999Z,13.12
2023-03-19T13:45:44.030Z,13.08
2023-03-19T13:48:35.164Z,13.05
2023-03-19T13:51:25.032Z,13.04
2023-03-19T13:54:11.707Z,13.01
2023-03-19T13:57:15.370Z,13.01
2023-03-19T13:59:52.265Z,13.03
2023-03-19T14:02:39.034Z,13.09
2023-03-19T14:05:22.840Z,13.13
2023-03-19T14:08:49.021Z,13.16
2023-03-19T14:11:49.046Z,13.16
2023-03-19T14:14:36.034Z,13.15
2023-03-19T14:17:09.240Z,13.17
2023-03-19T14:19:59.345Z,13.18
2023-03-19T14:23:08.881Z,13.18
2023-03-19T14:26:08.061Z,13.19
2023-03-19T14:29:09.066Z,13.19
2023-03-19T14:31:58.378Z,13.17
2023-03-19T14:34:50.110Z,13.14
2023-03-19T14:37:53.106Z,13.11
2023-03-19T14:40:51.107Z,13.05
2023-03-19T14:43:57.212Z,12.98
2023-03-19T14:47:11.101Z,12.88
2023-03-19T14:49:44.254Z,12.82
2023-03-19T14:52:38.163Z,12.75
2023-03-19T14:55:18.238Z,12.74
2023-03-19T14:58:08.072Z,12.70
2023-03-19T15:00:52.323Z,12.70
2023-03-19T15:03:49.064Z,12.66
2023-03-19T15:06:30.694Z,12.66
2023-03-19T15:09:45.064Z,12.65
2023-03-19T15:13:00.119Z,12.57
2023-03-19T15:16:11.284Z,12.50
2023-03-19T15:18:58.074Z,12.43
2023-03-19T15:21:38.185Z,12.32
2023-03-19T15:24:26.082Z,12.25
2023-03-19T15:27:07.090Z,12.21
2023-03-19T15:30:12.795Z,12.17
2023-03-19T15:33:13.900Z,12.12
2023-03-19T15:35:51.257Z,12.07
2023-03-19T15:38:45.080Z,11.95
2023-03-19T15:41:26.103Z,11.89
2023-03-19T15:44:26.170Z,11.83
2023-03-19T15:47:18.212Z,11.74
2023-03-19T15:50:19.213Z,11.64
2023-03-19T15:53:15.182Z,11.53
2023-03-19T15:55:49.220Z,11.45
2023-03-19T15:58:39.135Z,11.38
2023-03-19T16:01:22.178Z,11.29
2023-03-19T16:04:22.330Z,11.19
2023-03-19T16:07:09.283Z,11.12
2023-03-19T16:09:42.582Z,11.04
2023-03-19T16:12:46.121Z,10.95
2023-03-19T16:15:49.537Z,10.87
2023-03-19T16:18:47.167Z,10.78
2023-03-19T16:21:24.300Z,10.68
2023-03-19T16:24:25.121Z,10.57
2023-03-19T16:26:59.297Z,10.51
2023-03-19T16:29:51.198Z,10.42
2023-03-19T16:32:31.248Z,10.32
2023-03-19T16:35:26.154Z,10.24
2023-03-19T16:38:00.369Z,10.13
2023-03-19T16:40:53.120Z,9.99
2023-03-19T16:43:33.332Z,9.89
2023-03-19T16:46:23.174Z,9.78
2023-03-19T16:48:56.379Z,9.69
2023-03-19T16:51:44.169Z,9.59
2023-03-19T16:54:19.222Z,9.48
2023-03-19T16:57:06.124Z,9.36
2023-03-19T16:59:39.437Z,9.27
2023-03-19T17:02:26.140Z,9.14
2023-03-19T17:04:59.281Z,9.05
2023-03-19T17:07:39.182Z,8.95
2023-03-19T17:10:33.193Z,8.86
2023-03-19T17:13:35.141Z,8.79
2023-03-19T17:16:29.265Z,8.70
2023-03-19T17:19:33.129Z,8.61
2023-03-19T17:22:21.128Z,8.51
2023-03-19T17:24:54.826Z,8.42
2023-03-19T17:27:41.135Z,8.35
2023-03-19T17:30:22.126Z,8.28
2023-03-19T17:33:09.196Z,8.20
2023-03-19T17:35:45.429Z,8.14
2023-03-19T17:38:40.191Z,8.05
2023-03-19T17:41:30.177Z,7.98
2023-03-19T17:44:24.148Z,7.91
2023-03-19T17:47:11.155Z,7.86
2023-03-19T17:49:45.245Z,7.82
2023-03-19T17:52:32.184Z,7.76
2023-03-19T17:55:05.658Z,7.72
2023-03-19T17:57:52.169Z,7.68
2023-03-19T18:00:27.372Z,7.67
2023-03-19T18:03:20.278Z,7.63
2023-03-19T18:05:54.348Z,7.58
2023-03-19T18:08:48.131Z,7.55
2023-03-19T18:11:42.242Z,7.51
2023-03-19T18:14:36.250Z,7.46
2023-03-19T18:17:33.180Z,7.41
2023-03-19T18:20:25.169Z,7.39
2023-03-19T18:22:58.328Z,7.37
2023-03-19T18:25:45.225Z,7.38
2023-03-19T18:28:19.272Z,7.38
2023-03-19T18:31:07.171Z,7.36
2023-03-19T18:33:40.587Z,7.32
2023-03-19T18:36:30.172Z,7.28
2023-03-19T18:39:11.169Z,7.26
2023-03-19T18:42:05.174Z,7.22
2023-03-19T18:44:52.183Z,7.16
2023-03-19T18:47:25.305Z,7.11
2023-03-19T18:50:32.182Z,7.07
2023-03-19T18:53:05.284Z,7.01
2023-03-19T18:55:53.189Z,6.91
2023-03-19T18:58:36.246Z,6.84
2023-03-19T19:01:24.189Z,6.73
2023-03-19T19:04:05.212Z,6.63
2023-03-19T19:06:59.178Z,6.52
2023-03-19T19:09:53.198Z,6.44
2023-03-19T19:12:47.172Z,6.38
2023-03-19T19:15:41.199Z,6.33
2023-03-19T19:18:40.176Z,6.27
2023-03-19T19:21:27.183Z,6.21
2023-03-19T19:24:00.308Z,6.17
2023-03-19T19:26:49.171Z,6.06
2023-03-19T19:29:39.235Z,6.00
2023-03-19T19:32:37.243Z,5.93
2023-03-19T19:35:28.214Z,5.87
2023-03-19T19:38:02.387Z,5.77
2023-03-19T19:40:51.191Z,5.72
2023-03-19T19:43:34.332Z,5.68
2023-03-19T19:46:25.268Z,5.59
2023-03-19T19:48:58.347Z,5.51
2023-03-19T19:51:45.198Z,5.43
2023-03-19T19:54:18.357Z,5.36
2023-03-19T19:57:05.231Z,5.31
2023-03-19T19:59:39.474Z,5.25
2023-03-19T20:02:37.224Z,5.19
2023-03-19T20:05:18.186Z,5.17
2023-03-19T20:08:08.211Z,5.12
2023-03-19T20:10:43.626Z,5.02
2023-03-19T20:13:39.203Z,4.95
2023-03-19T20:16:16.524Z,4.86
2023-03-19T20:19:04.202Z,4.77
2023-03-19T20:21:39.224Z,4.70
2023-03-19T20:24:27.208Z,4.65
2023-03-19T20:27:10.227Z,4.56
2023-03-19T20:30:05.215Z,4.47
2023-03-19T20:32:59.224Z,4.42
2023-03-19T20:35:51.262Z,4.37
2023-03-19T20:38:27.478Z,4.30
2023-03-19T20:41:27.241Z,4.23
2023-03-19T20:44:02.596Z,4.16
2023-03-19T20:46:50.276Z,4.12
2023-03-19T20:49:31.222Z,4.10
2023-03-19T20:52:23.251Z,4.05
2023-03-19T20:54:58.245Z,4.00
2023-03-19T20:57:45.207Z,3.95
2023-03-19T21:00:32.037Z,3.92
2023-03-19T21:03:30.225Z,3.86
2023-03-19T21:06:17.243Z,3.80
2023-03-19T21:09:11.213Z,3.73
2023-03-19T21:11:59.263Z,3.70
2023-03-19T21:14:39.300Z,3.65
2023-03-19T21:17:26.233Z,3.60
2023-03-19T21:20:00.803Z,3.55
2023-03-19T21:22:48.224Z,3.53
2023-03-19T21:25:41.332Z,3.47
2023-03-19T21:28:36.264Z,3.42
2023-03-19T21:31:09.414Z,3.37
2023-03-19T21:33:59.283Z,3.35
2023-03-19T21:36:32.420Z,3.33
2023-03-19T21:39:20.373Z,3.33
2023-03-19T21:41:57.177Z,3.32
2023-03-19T21:44:45.268Z,3.31
2023-03-19T21:47:26.374Z,3.29
2023-03-19T21:50:20.235Z,3.29
2023-03-19T21:53:00.676Z,3.29
2023-03-19T21:55:49.252Z,3.30
2023-03-19T21:58:32.251Z,3.29
2023-03-19T22:01:24.314Z,3.27
2023-03-19T22:03:59.377Z,3.27
2023-03-19T22:06:46.234Z,3.27
2023-03-19T22:09:26.242Z,3.25
2023-03-19T22:12:39.256Z,3.24
2023-03-19T22:15:35.433Z,3.24
2023-03-19T22:18:14.291Z,3.24
2023-03-19T22:21:01.271Z,3.23
2023-03-19T22:23:37.341Z,3.21
2023-03-19T22:26:31.256Z,3.20
2023-03-19T22:29:07.349Z,3.18
2023-03-19T22:31:59.331Z,3.22
2023-03-19T22:34:34.375Z,3.25
2023-03-19T22:37:37.291Z,3.24
2023-03-19T22:40:10.602Z,3.25
2023-03-19T22:42:57.264Z,3.27
2023-03-19T22:45:42.316Z,3.30
2023-03-19T22:48:36.288Z,3.33
2023-03-19T22:51:32.321Z,3.33
2023-03-19T22:54:19.382Z,3.34
2023-03-19T22:56:52.484Z,3.33
2023-03-19T22:59:39.331Z,3.34
2023-03-19T23:02:15.067Z,3.34
2023-03-19T23:05:02.315Z,3.32
2023-03-19T23:07:42.332Z,3.31
2023-03-19T23:10:42.322Z,3.32
2023-03-19T23:13:36.264Z,3.33
2023-03-19T23:16:38.328Z,3.32
2023-03-19T23:19:35.391Z,3.29
2023-03-19T23:22:10.370Z,3.26
2023-03-19T23:24:57.332Z,3.23
2023-03-19T23:27:32.370Z,3.22
2023-03-19T23:30:29.370Z,3.20
2023-03-19T23:33:07.420Z,3.21
2023-03-19T23:35:55.329Z,3.21
2023-03-19T23:38:36.367Z,3.20
2023-03-19T23:41:29.283Z,3.21
2023-03-19T23:44:06.729Z,3.22
2023-03-19T23:46:56.322Z,3.22
2023-03-19T23:49:38.484Z,3.20
2023-03-19T23:52:25.398Z,3.22
2023-03-19T23:55:05.327Z,3.24
2023-03-19T23:57:53.286Z,3.28
